Time;durP1;ratioP1;P1;durP2;ratioP2;P2;SDS_P1;SDS_P2;PMS_P1;PMS_P2;Temp;Humidity;BMP_temperature;BMP_pressure;BME280_temperature;BME280_humidity;BME280_pressure;Samples;Min_cycle;Max_cycle;Signal;HPM_P1;HPM_P2
2022/01/11 00:00:23;;;;;;;1999.90;999.90;;;-0.30;99.90;;;;;;4990351;28;20617;-82
2022/01/11 00:02:51;;;;;;;1999.90;999.90;;;-0.40;99.90;;;;;;4994600;28;20556;-83
2022/01/11 00:05:25;;;;;;;1999.90;999.90;;;-0.40;99.90;;;;;;4993466;28;20049;-83
2022/01/11 00:07:52;;;;;;;1999.90;999.90;;;-0.40;99.90;;;;;;4993906;28;20426;-83
2022/01/11 00:10:27;;;;;;;70.10;66.00;;;-0.40;99.90;;;;;;5010717;28;20056;-83
2022/01/11 00:12:53;;;;;;;635.85;361.90;;;-0.50;99.90;;;;;;4994763;28;20402;-83
2022/01/11 00:15:19;;;;;;;113.00;106.07;;;-0.50;99.90;;;;;;5008746;28;20499;-83
2022/01/11 00:17:45;;;;;;;151.85;142.95;;;-0.60;99.90;;;;;;4995517;28;20046;-83
2022/01/11 00:20:13;;;;;;;78.28;73.82;;;-0.60;99.90;;;;;;5011181;28;20069;-83
2022/01/11 00:22:57;;;;;;;88.15;82.43;;;-0.60;99.90;;;;;;4993730;28;20050;-84
2022/01/11 00:25:23;;;;;;;162.20;150.73;;;-0.60;99.90;;;;;;4992123;28;20041;-83
2022/01/11 00:27:49;;;;;;;113.75;107.13;;;-0.60;99.90;;;;;;4994213;28;20045;-84
2022/01/11 00:30:14;;;;;;;74.95;70.40;;;-0.60;99.90;;;;;;4993599;28;20042;-83
2022/01/11 00:32:46;;;;;;;125.07;116.35;;;-0.60;99.90;;;;;;4993275;28;20463;-83
2022/01/11 00:35:15;;;;;;;60.58;56.25;;;-0.60;99.90;;;;;;4993194;28;20077;-84
2022/01/11 00:37:41;;;;;;;34.63;32.50;;;-0.70;99.90;;;;;;5004827;28;20047;-83
2022/01/11 00:40:08;;;;;;;42.95;40.30;;;-0.70;99.90;;;;;;5014038;28;20046;-83
2022/01/11 00:42:34;;;;;;;33.05;31.08;;;-0.60;99.90;;;;;;4987697;28;20066;-83
2022/01/11 00:45:00;;;;;;;34.58;32.03;;;-0.60;99.90;;;;;;4990057;28;20053;-83
2022/01/11 00:47:26;;;;;;;77.07;71.38;;;-0.60;99.90;;;;;;4993599;28;20445;-84
2022/01/11 00:49:53;;;;;;;30.92;28.90;;;-0.60;99.90;;;;;;5010190;28;20146;-84
2022/01/11 00:52:19;;;;;;;26.13;24.25;;;-0.60;99.90;;;;;;4992911;28;20136;-83
2022/01/11 00:54:45;;;;;;;28.88;26.67;;;-0.50;99.90;;;;;;4999643;28;20149;-84
2022/01/11 00:57:10;;;;;;;21.88;20.45;;;-0.50;99.90;;;;;;4993380;28;20046;-83
2022/01/11 00:59:36;;;;;;;31.90;29.60;;;-0.50;99.90;;;;;;5006951;28;20506;-84
2022/01/11 01:02:02;;;;;;;31.08;29.33;;;-0.50;99.90;;;;;;5009597;28;20034;-84
2022/01/11 01:04:27;;;;;;;21.83;20.50;;;-0.50;99.90;;;;;;4993451;28;20514;-83
2022/01/11 01:06:53;;;;;;;34.47;30.83;;;-0.50;99.90;;;;;;5008536;28;20030;-83
2022/01/11 01:09:19;;;;;;;27.95;26.15;;;-0.50;99.90;;;;;;5007193;28;20104;-83
2022/01/11 01:11:45;;;;;;;35.33;33.05;;;-0.50;99.90;;;;;;4993313;28;20137;-83
2022/01/11 01:14:12;;;;;;;29.23;27.33;;;-0.60;99.90;;;;;;4992363;28;20100;-83
2022/01/11 01:16:38;;;;;;;48.38;45.70;;;-0.70;99.90;;;;;;5009352;28;20748;-83
2022/01/11 01:19:04;;;;;;;54.10;51.10;;;-0.70;99.90;;;;;;4993328;28;20050;-83
2022/01/11 01:21:36;;;;;;;49.45;46.75;;;-0.70;99.90;;;;;;4993097;28;20052;-83
2022/01/11 01:24:03;;;;;;;54.97;51.87;;;-0.70;99.90;;;;;;4990277;28;20076;-83
2022/01/11 01:26:29;;;;;;;61.95;58.47;;;-0.70;99.90;;;;;;4992286;28;20341;-83
2022/01/11 01:28:55;;;;;;;63.50;59.90;;;-0.70;99.90;;;;;;4992678;28;20080;-83
2022/01/11 01:31:20;;;;;;;29.83;28.23;;;-0.70;99.90;;;;;;4992638;28;20057;-83
2022/01/11 01:33:46;;;;;;;35.58;33.58;;;-0.70;99.90;;;;;;4991690;28;20558;-83
2022/01/11 01:36:12;;;;;;;34.35;32.40;;;-0.60;99.90;;;;;;4992085;28;20042;-83
2022/01/11 01:38:38;;;;;;;36.50;34.50;;;-0.60;99.90;;;;;;5015328;28;20053;-83
2022/01/11 01:41:15;;;;;;;43.88;41.30;;;-0.60;99.90;;;;;;5010910;28;20401;-83
2022/01/11 01:43:42;;;;;;;70.53;66.57;;;-0.60;99.90;;;;;;4985350;28;20053;-83
2022/01/11 01:46:08;;;;;;;81.35;76.65;;;-0.60;99.90;;;;;;4995585;28;20050;-83
2022/01/11 01:48:35;;;;;;;85.57;79.05;;;-0.60;99.90;;;;;;4999366;28;20121;-83
2022/01/11 01:51:02;;;;;;;82.55;77.82;;;-0.50;99.90;;;;;;5009288;28;20414;-83
2022/01/11 01:53:29;;;;;;;108.40;101.63;;;-0.50;99.90;;;;;;4993146;28;20450;-83
2022/01/11 01:55:55;;;;;;;96.78;90.78;;;-0.50;99.90;;;;;;4991080;28;20091;-84
2022/01/11 01:58:21;;;;;;;69.07;65.10;;;-0.50;99.90;;;;;;4991942;28;20124;-83
2022/01/11 02:00:55;;;;;;;56.95;53.17;;;-0.50;99.90;;;;;;5005472;28;20133;-83
2022/01/11 02:03:29;;;;;;;99.25;93.15;;;-0.50;99.90;;;;;;5007114;28;20559;-83
2022/01/11 02:05:55;;;;;;;61.22;57.35;;;-0.50;99.90;;;;;;4986415;28;20041;-83
2022/01/11 02:08:22;;;;;;;83.15;78.07;;;-0.40;99.90;;;;;;4992583;28;20396;-83
2022/01/11 02:10:48;;;;;;;192.57;177.93;;;-0.40;99.90;;;;;;4992234;28;20049;-83
2022/01/11 02:13:14;;;;;;;55.92;52.60;;;-0.30;99.90;;;;;;4991327;28;20088;-83
2022/01/11 02:15:40;;;;;;;92.13;86.22;;;-0.30;99.90;;;;;;5008741;28;20042;-83
2022/01/11 02:18:19;;;;;;;77.13;72.18;;;-0.30;99.90;;;;;;5007885;28;20393;-83
2022/01/11 02:20:46;;;;;;;52.50;49.55;;;-0.30;99.90;;;;;;4988502;28;20565;-83
2022/01/11 02:23:17;;;;;;;150.88;139.43;;;-0.20;99.90;;;;;;4990358;28;20435;-83
2022/01/11 02:25:43;;;;;;;97.90;92.18;;;-0.20;99.90;;;;;;4992457;28;20495;-83
2022/01/11 02:28:12;;;;;;;141.77;133.02;;;-0.20;99.90;;;;;;4992009;28;20069;-83
2022/01/11 02:30:37;;;;;;;115.38;108.13;;;-0.10;99.90;;;;;;4990625;28;20068;-84
2022/01/11 02:33:08;;;;;;;176.77;164.25;;;-0.10;99.90;;;;;;4988994;28;20038;-83
2022/01/11 02:35:33;;;;;;;187.48;174.02;;;-0.10;99.90;;;;;;4992704;28;20475;-83
2022/01/11 02:37:59;;;;;;;176.95;164.38;;;-0.10;99.90;;;;;;5007003;28;20052;-83
2022/01/11 02:40:25;;;;;;;1999.90;999.90;;;-0.10;99.90;;;;;;5000870;28;20104;-83
2022/01/11 02:42:50;;;;;;;1999.90;999.90;;;0.00;99.90;;;;;;4995506;28;20493;-83
2022/01/11 02:45:18;;;;;;;1999.90;999.90;;;0.00;99.90;;;;;;4995440;28;20058;-83
2022/01/11 02:47:46;;;;;;;155.93;142.93;;;0.00;99.90;;;;;;5012389;28;20391;-83
2022/01/11 02:50:13;;;;;;;92.25;85.72;;;0.00;99.90;;;;;;4995350;28;20044;-83
2022/01/11 02:52:39;;;;;;;79.10;73.78;;;0.00;99.90;;;;;;4996359;28;20376;-83
2022/01/11 02:55:09;;;;;;;62.28;58.33;;;0.10;99.90;;;;;;4990613;28;20095;-83
2022/01/11 02:57:35;;;;;;;40.70;38.20;;;0.10;99.90;;;;;;4995750;28;20125;-83
2022/01/11 03:00:03;;;;;;;47.05;43.70;;;0.20;99.90;;;;;;4987249;28;20125;-83
2022/01/11 03:02:29;;;;;;;304.67;285.50;;;0.20;99.90;;;;;;5011913;28;20053;-83
2022/01/11 03:04:54;;;;;;;249.00;231.70;;;0.20;99.90;;;;;;4993917;28;20061;-84
2022/01/11 03:07:21;;;;;;;109.60;100.97;;;0.20;99.90;;;;;;4994739;28;20049;-84
2022/01/11 03:10:12;;;;;;;99.88;93.80;;;0.30;99.90;;;;;;4994937;28;20038;-83
2022/01/11 03:12:35;;;;;;;86.75;80.38;;;0.30;99.90;;;;;;5007785;28;20089;-84
2022/01/11 03:15:01;;;;;;;91.43;83.15;;;0.30;99.90;;;;;;4994985;28;20065;-84
2022/01/11 03:17:27;;;;;;;223.77;209.15;;;0.30;99.90;;;;;;5011649;28;20042;-83
2022/01/11 03:19:54;;;;;;;250.32;233.68;;;0.30;99.90;;;;;;4994111;28;20045;-83
2022/01/11 03:22:20;;;;;;;214.57;200.15;;;0.30;99.90;;;;;;5003491;28;20513;-84
2022/01/11 03:24:46;;;;;;;105.10;98.35;;;0.30;99.90;;;;;;5006185;28;20107;-84
2022/01/11 03:27:12;;;;;;;139.15;129.13;;;0.30;99.90;;;;;;5008721;28;20042;-83
2022/01/11 03:29:39;;;;;;;88.10;81.93;;;0.30;99.90;;;;;;4994431;28;20398;-83
2022/01/11 03:32:06;;;;;;;166.70;155.95;;;0.30;99.90;;;;;;5010704;28;20129;-83
2022/01/11 03:34:32;;;;;;;131.40;122.90;;;0.30;99.90;;;;;;4990717;28;20088;-83
2022/01/11 03:36:58;;;;;;;69.78;65.38;;;0.30;99.90;;;;;;4994271;28;20041;-84
2022/01/11 03:39:27;;;;;;;65.70;60.47;;;0.30;99.90;;;;;;4996083;28;20057;-84
2022/01/11 03:41:53;;;;;;;60.55;56.17;;;0.30;99.90;;;;;;5010513;28;20042;-83
2022/01/11 03:44:20;;;;;;;57.30;53.25;;;0.30;99.90;;;;;;5009625;28;20691;-84
2022/01/11 03:46:46;;;;;;;63.95;58.25;;;0.30;99.90;;;;;;4992802;28;20038;-83
2022/01/11 03:49:11;;;;;;;56.95;52.75;;;0.30;99.90;;;;;;4992402;28;20054;-83
2022/01/11 03:51:39;;;;;;;42.92;39.45;;;0.30;99.90;;;;;;4988493;28;20041;-83
2022/01/11 03:54:13;;;;;;;65.63;61.30;;;0.30;99.90;;;;;;4999658;28;20045;-83
2022/01/11 03:56:39;;;;;;;177.95;166.65;;;0.20;99.90;;;;;;4993727;28;20046;-83
2022/01/11 03:59:08;;;;;;;81.30;75.70;;;0.20;99.90;;;;;;4994337;28;20053;-83
2022/01/11 04:01:38;;;;;;;159.77;90.40;;;0.20;99.90;;;;;;4993921;28;20042;-83
2022/01/11 04:04:05;;;;;;;39.42;25.42;;;0.20;99.90;;;;;;4990416;28;20046;-83
2022/01/11 04:06:31;;;;;;;55.53;42.15;;;0.20;99.90;;;;;;5009089;28;20045;-83
2022/01/11 04:08:57;;;;;;;38.38;28.98;;;0.20;99.90;;;;;;4994372;28;20108;-83
2022/01/11 04:11:23;;;;;;;29.58;20.48;;;0.20;99.90;;;;;;4992670;28;20240;-84
2022/01/11 04:13:48;;;;;;;22.75;20.65;;;0.20;99.90;;;;;;5010310;28;20053;-83
2022/01/11 04:16:15;;;;;;;35.58;32.33;;;0.30;99.90;;;;;;4994182;28;20045;-83
2022/01/11 04:18:41;;;;;;;98.80;90.50;;;0.30;99.90;;;;;;4990614;28;20039;-83
2022/01/11 04:21:07;;;;;;;82.30;75.85;;;0.30;99.90;;;;;;4994419;28;20046;-83
2022/01/11 04:23:33;;;;;;;97.10;88.03;;;0.30;99.90;;;;;;4990704;28;20451;-83
2022/01/11 04:25:59;;;;;;;117.53;105.82;;;0.30;99.90;;;;;;4993597;28;20140;-83
2022/01/11 04:28:27;;;;;;;69.72;64.25;;;0.40;99.90;;;;;;4993511;28;20042;-84
2022/01/11 04:30:57;;;;;;;73.35;66.47;;;0.30;99.90;;;;;;4992212;28;20046;-83
2022/01/11 04:33:24;;;;;;;97.88;89.80;;;0.40;99.90;;;;;;4991043;28;20756;-83
2022/01/11 04:35:50;;;;;;;146.68;133.68;;;0.40;99.90;;;;;;4993375;28;20407;-84
2022/01/11 04:38:24;;;;;;;51.42;31.25;;;0.40;99.90;;;;;;4996574;28;20049;-83
2022/01/11 04:40:51;;;;;;;100.82;92.65;;;0.40;99.90;;;;;;4989417;28;20522;-83
2022/01/11 04:43:16;;;;;;;125.78;115.05;;;0.40;99.90;;;;;;4996687;28;21837;-83
2022/01/11 04:45:42;;;;;;;106.22;99.10;;;0.40;99.90;;;;;;4993417;28;20050;-82
2022/01/11 04:48:08;;;;;;;180.25;162.50;;;0.40;99.90;;;;;;4993456;28;20042;-83
2022/01/11 04:50:34;;;;;;;135.50;125.35;;;0.40;99.90;;;;;;5009720;28;20558;-82
2022/01/11 04:53:01;;;;;;;76.85;70.75;;;0.40;99.90;;;;;;5006968;28;20038;-83
2022/01/11 04:55:27;;;;;;;99.57;91.38;;;0.40;99.90;;;;;;5009716;28;20081;-82
2022/01/11 04:57:53;;;;;;;105.80;96.38;;;0.40;99.90;;;;;;5005557;28;20881;-83
2022/01/11 05:00:21;;;;;;;114.95;106.03;;;0.40;99.90;;;;;;4991878;28;20073;-82
2022/01/11 05:02:47;;;;;;;124.35;112.88;;;0.40;99.90;;;;;;5007891;28;20125;-83
2022/01/11 05:05:15;;;;;;;85.45;78.85;;;0.40;99.90;;;;;;4992958;28;20121;-82
2022/01/11 05:07:42;;;;;;;67.57;61.88;;;0.30;99.90;;;;;;5005551;28;20057;-82
2022/01/11 05:10:08;;;;;;;124.38;114.10;;;0.40;99.90;;;;;;4993144;28;20391;-83
2022/01/11 05:12:34;;;;;;;73.32;67.03;;;0.40;99.90;;;;;;5000524;28;20478;-83
2022/01/11 05:15:00;;;;;;;84.50;77.32;;;0.40;99.90;;;;;;5008455;28;20173;-83
2022/01/11 05:17:26;;;;;;;120.10;109.20;;;0.40;99.90;;;;;;4992639;28;20133;-83
2022/01/11 05:19:51;;;;;;;52.78;48.75;;;0.40;99.90;;;;;;4985118;28;20478;-83
2022/01/11 05:22:17;;;;;;;26.25;23.20;;;0.40;99.90;;;;;;4992579;28;20045;-83
2022/01/11 05:24:42;;;;;;;26.80;21.20;;;0.30;99.90;;;;;;4991499;28;20049;-83
2022/01/11 05:27:08;;;;;;;30.90;26.83;;;0.40;99.90;;;;;;5008653;28;20053;-83
2022/01/11 05:29:34;;;;;;;40.63;33.42;;;0.40;99.90;;;;;;4992935;28;20160;-83
2022/01/11 05:32:01;;;;;;;32.80;29.50;;;0.40;99.90;;;;;;4992503;28;20041;-82
2022/01/11 05:34:27;;;;;;;26.83;23.85;;;0.40;99.90;;;;;;4991301;28;20077;-83
2022/01/11 05:36:53;;;;;;;28.02;25.27;;;0.40;99.90;;;;;;4990122;28;20155;-83
2022/01/11 05:39:18;;;;;;;23.52;17.02;;;0.40;99.90;;;;;;4998134;28;20046;-83
2022/01/11 05:41:44;;;;;;;19.75;17.70;;;0.30;99.90;;;;;;4990350;28;20503;-83
2022/01/11 05:44:10;;;;;;;17.08;14.38;;;0.30;99.90;;;;;;5008239;28;20104;-83
2022/01/11 05:46:36;;;;;;;10.95;10.02;;;0.30;99.90;;;;;;4990895;28;20054;-83
2022/01/11 05:49:02;;;;;;;27.15;14.00;;;0.30;99.90;;;;;;5008564;28;20056;-83
2022/01/11 05:51:27;;;;;;;15.68;13.07;;;0.30;99.90;;;;;;5008976;28;20145;-83
2022/01/11 05:53:54;;;;;;;27.17;20.67;;;0.30;99.90;;;;;;4991612;28;20129;-83
2022/01/11 05:56:20;;;;;;;18.25;16.50;;;0.30;99.90;;;;;;5007694;28;20095;-83
2022/01/11 05:58:46;;;;;;;13.52;12.40;;;0.40;99.90;;;;;;4991938;28;20044;-83
2022/01/11 06:01:13;;;;;;;13.23;11.95;;;0.30;99.90;;;;;;4991075;28;20084;-82
2022/01/11 06:03:39;;;;;;;33.10;22.48;;;0.30;99.90;;;;;;4991411;28;20077;-83
2022/01/11 06:06:05;;;;;;;27.10;24.33;;;0.30;99.90;;;;;;4990813;28;20506;-83
2022/01/11 06:08:31;;;;;;;36.67;32.78;;;0.30;99.90;;;;;;4992389;28;20049;-83
2022/01/11 06:10:57;;;;;;;18.85;17.52;;;0.30;99.90;;;;;;4991538;28;20042;-83
2022/01/11 06:13:23;;;;;;;24.10;18.75;;;0.30;99.90;;;;;;4992213;28;20053;-83
2022/01/11 06:15:50;;;;;;;17.70;15.38;;;0.30;99.90;;;;;;4991393;28;20038;-83
2022/01/11 06:18:16;;;;;;;30.63;27.10;;;0.30;99.90;;;;;;4991935;28;20046;-83
2022/01/11 06:20:42;;;;;;;25.27;20.38;;;0.30;99.90;;;;;;4991953;28;20048;-82
2022/01/11 06:23:07;;;;;;;24.77;22.63;;;0.30;99.90;;;;;;5006523;28;20093;-83
2022/01/11 06:25:33;;;;;;;25.15;23.17;;;0.30;99.90;;;;;;4991193;28;20100;-83
2022/01/11 06:27:59;;;;;;;36.10;27.45;;;0.20;99.90;;;;;;5009163;28;20054;-83
2022/01/11 06:30:25;;;;;;;16.88;15.40;;;0.20;99.90;;;;;;4984439;28;20040;-83
2022/01/11 06:32:51;;;;;;;37.03;23.65;;;0.20;99.90;;;;;;4990567;28;20581;-83
2022/01/11 06:35:18;;;;;;;17.23;15.65;;;0.20;99.90;;;;;;5008119;28;20407;-83
2022/01/11 06:37:44;;;;;;;22.80;20.27;;;0.20;99.90;;;;;;4991820;28;20042;-83
2022/01/11 06:40:12;;;;;;;19.42;18.13;;;0.20;99.90;;;;;;4998399;28;20092;-83
2022/01/11 06:42:38;;;;;;;37.35;34.60;;;0.20;99.90;;;;;;5007843;28;20042;-83
2022/01/11 06:45:05;;;;;;;29.17;27.48;;;0.10;99.90;;;;;;4991084;28;20851;-83
2022/01/11 06:47:31;;;;;;;48.17;32.97;;;0.20;99.90;;;;;;5007803;28;20046;-83
2022/01/11 06:49:57;;;;;;;29.75;26.38;;;0.10;99.90;;;;;;4991127;28;20042;-83
2022/01/11 06:52:23;;;;;;;26.02;24.08;;;0.20;99.90;;;;;;5006331;28;20099;-83
2022/01/11 06:54:48;;;;;;;30.60;27.60;;;0.20;99.90;;;;;;4998013;28;20097;-83
2022/01/11 06:57:14;;;;;;;28.52;22.70;;;0.20;99.90;;;;;;4989498;28;20042;-83
2022/01/11 06:59:40;;;;;;;25.95;17.25;;;0.20;99.90;;;;;;4991140;28;20054;-83
2022/01/11 07:02:06;;;;;;;29.13;20.75;;;0.20;99.90;;;;;;5007862;28;20038;-83
2022/01/11 07:04:33;;;;;;;21.90;17.67;;;0.20;99.90;;;;;;5006714;28;20614;-83
2022/01/11 07:06:59;;;;;;;21.08;18.88;;;0.10;99.90;;;;;;4990900;28;20125;-83
2022/01/11 07:09:25;;;;;;;18.05;16.55;;;0.20;99.90;;;;;;5007400;28;20177;-83
2022/01/11 07:11:51;;;;;;;14.45;13.18;;;0.10;99.90;;;;;;4994343;28;20042;-83
2022/01/11 07:14:17;;;;;;;22.20;18.00;;;0.10;99.90;;;;;;4992204;28;20434;-83
2022/01/11 07:16:48;;;;;;;30.52;19.55;;;0.10;99.90;;;;;;4990775;28;20041;-84
2022/01/11 07:19:14;;;;;;;27.10;24.48;;;0.10;99.90;;;;;;5005363;28;20058;-84
2022/01/11 07:21:40;;;;;;;38.38;34.67;;;0.10;99.90;;;;;;5005780;28;20049;-83
2022/01/11 07:24:06;;;;;;;17.73;16.08;;;0.10;99.90;;;;;;4990184;28;20481;-83
2022/01/11 07:26:33;;;;;;;17.15;14.38;;;0.10;99.90;;;;;;5005772;28;20046;-83
2022/01/11 07:28:58;;;;;;;26.02;23.27;;;0.10;99.90;;;;;;5011555;28;20072;-83
2022/01/11 07:31:24;;;;;;;24.10;21.73;;;0.10;99.90;;;;;;4991278;28;20061;-83
2022/01/11 07:33:50;;;;;;;21.83;19.70;;;0.00;99.90;;;;;;4995153;28;20069;-83
2022/01/11 07:36:15;;;;;;;31.10;28.35;;;0.00;99.90;;;;;;5011740;28;20056;-83
2022/01/11 07:38:41;;;;;;;25.67;23.52;;;0.00;99.90;;;;;;5002947;28;20095;-83
2022/01/11 07:41:07;;;;;;;26.17;23.90;;;0.00;99.90;;;;;;4996184;28;20060;-83
2022/01/11 07:43:32;;;;;;;27.85;24.73;;;0.00;99.90;;;;;;5011133;28;20053;-83
2022/01/11 07:45:58;;;;;;;32.38;29.13;;;0.00;99.90;;;;;;4994904;28;20566;-83
2022/01/11 07:48:23;;;;;;;30.88;28.08;;;0.00;99.90;;;;;;4993542;28;20111;-83
2022/01/11 07:50:49;;;;;;;27.65;25.30;;;0.00;99.90;;;;;;5011188;28;20124;-83
2022/01/11 07:53:15;;;;;;;23.45;21.25;;;0.00;99.90;;;;;;4994362;28;20064;-83
2022/01/11 07:55:41;;;;;;;26.02;24.02;;;0.00;99.90;;;;;;4993879;28;20042;-83
2022/01/11 07:58:06;;;;;;;28.95;25.75;;;0.00;99.90;;;;;;4993950;28;20572;-83
2022/01/11 08:00:32;;;;;;;26.80;24.17;;;0.00;99.90;;;;;;5011008;28;20053;-83
2022/01/11 08:02:58;;;;;;;23.88;21.20;;;0.00;99.90;;;;;;5009060;28;20056;-83
2022/01/11 08:05:23;;;;;;;22.55;18.35;;;0.00;99.90;;;;;;5010962;28;20065;-83
2022/01/11 08:07:49;;;;;;;21.13;19.63;;;0.00;99.90;;;;;;4994803;28;20325;-83
2022/01/11 08:10:18;;;;;;;27.15;24.25;;;0.00;99.90;;;;;;5010743;28;20045;-83
2022/01/11 08:12:44;;;;;;;16.48;14.93;;;0.10;99.90;;;;;;4999319;28;20399;-83
2022/01/11 08:15:10;;;;;;;32.65;29.40;;;0.10;99.90;;;;;;4994240;28;20045;-82
2022/01/11 08:17:37;;;;;;;31.63;28.52;;;0.10;99.90;;;;;;5006300;28;20054;-83
2022/01/11 08:20:03;;;;;;;18.75;16.58;;;0.10;99.90;;;;;;4989543;28;20503;-83
2022/01/11 08:22:29;;;;;;;29.27;23.88;;;0.30;99.90;;;;;;5006854;28;20042;-83
2022/01/11 08:24:55;;;;;;;27.55;19.88;;;0.50;99.90;;;;;;4988560;28;20503;-83
2022/01/11 08:27:22;;;;;;;26.20;24.15;;;0.60;99.90;;;;;;5009721;28;20041;-83
2022/01/11 08:29:49;;;;;;;31.02;28.08;;;0.70;99.90;;;;;;4993441;28;20065;-83
2022/01/11 08:32:15;;;;;;;25.90;16.70;;;0.80;99.90;;;;;;4991366;28;20088;-83
2022/01/11 08:34:41;;;;;;;19.25;17.60;;;0.90;99.90;;;;;;4994137;28;20542;-83
2022/01/11 08:37:08;;;;;;;25.20;22.10;;;0.80;99.90;;;;;;5005284;28;20072;-83
2022/01/11 08:39:34;;;;;;;25.48;20.80;;;0.60;99.90;;;;;;5017512;28;20061;-83
2022/01/11 08:42:00;;;;;;;29.52;21.00;;;0.40;99.90;;;;;;4989884;28;20042;-84
2022/01/11 08:44:26;;;;;;;22.73;20.33;;;0.30;99.90;;;;;;4988846;28;20042;-83
2022/01/11 08:46:51;;;;;;;22.00;19.85;;;0.20;99.90;;;;;;4993151;28;20124;-84
2022/01/11 08:49:17;;;;;;;20.83;18.63;;;0.30;99.90;;;;;;4993139;28;20141;-84
2022/01/11 08:51:43;;;;;;;22.02;19.70;;;0.40;99.90;;;;;;4991424;28;20060;-83
2022/01/11 08:54:11;;;;;;;23.35;21.35;;;0.40;99.90;;;;;;4993500;28;20045;-83
2022/01/11 08:56:38;;;;;;;18.60;17.08;;;0.30;99.90;;;;;;5009503;28;20446;-83
2022/01/11 08:59:03;;;;;;;20.25;18.45;;;0.30;99.90;;;;;;4992302;28;20070;-83
2022/01/11 09:01:31;;;;;;;22.77;20.45;;;0.30;99.90;;;;;;4983241;28;20046;-83
2022/01/11 09:03:58;;;;;;;27.50;24.75;;;0.20;99.90;;;;;;4990219;28;20054;-83
2022/01/11 09:06:24;;;;;;;18.05;16.42;;;0.20;99.90;;;;;;5006338;28;20045;-84
2022/01/11 09:08:52;;;;;;;44.53;40.75;;;0.20;99.90;;;;;;4988175;28;20571;-84
2022/01/11 09:11:18;;;;;;;16.20;15.05;;;0.10;99.90;;;;;;4990782;28;20124;-84
2022/01/11 09:13:44;;;;;;;19.83;18.17;;;0.10;99.90;;;;;;4991057;28;20038;-85
2022/01/11 09:16:11;;;;;;;22.10;19.88;;;0.10;99.90;;;;;;4988702;28;20042;-84
2022/01/11 09:18:38;;;;;;;21.45;16.25;;;0.10;99.90;;;;;;4988149;28;20042;-84
2022/01/11 09:21:04;;;;;;;23.40;18.55;;;0.10;99.90;;;;;;4991027;28;20054;-83
2022/01/11 09:23:31;;;;;;;31.67;28.02;;;0.00;99.90;;;;;;5008492;28;20076;-85
2022/01/11 09:25:57;;;;;;;25.80;17.63;;;0.00;99.90;;;;;;5003198;28;20053;-85
2022/01/11 09:28:23;;;;;;;24.92;22.35;;;0.00;99.90;;;;;;4991473;28;20045;-86
2022/01/11 09:30:50;;;;;;;44.85;41.30;;;0.00;99.90;;;;;;4988145;28;20126;-86
2022/01/11 09:33:16;;;;;;;40.53;37.75;;;0.00;99.90;;;;;;5002703;28;20046;-85
2022/01/11 09:35:42;;;;;;;52.70;49.05;;;0.00;99.90;;;;;;5007780;28;20451;-84
2022/01/11 09:38:08;;;;;;;54.08;49.83;;;0.00;99.90;;;;;;4996354;28;20806;-85
2022/01/11 09:40:33;;;;;;;59.55;54.20;;;0.10;99.90;;;;;;4994269;28;20057;-83
2022/01/11 09:42:59;;;;;;;44.53;41.38;;;0.10;99.90;;;;;;4991952;28;20561;-83
2022/01/11 09:45:25;;;;;;;74.82;68.60;;;0.10;99.90;;;;;;4999035;28;20045;-83
2022/01/11 09:47:50;;;;;;;67.38;61.95;;;0.10;99.90;;;;;;5007779;28;20045;-83
2022/01/11 09:50:17;;;;;;;42.65;38.95;;;0.20;99.90;;;;;;5005239;28;20034;-83
2022/01/11 09:52:43;;;;;;;44.72;41.42;;;0.20;99.90;;;;;;4987760;28;20557;-83
2022/01/11 09:55:12;;;;;;;30.98;28.70;;;0.20;99.90;;;;;;5008167;28;20073;-83
2022/01/11 09:57:40;;;;;;;31.95;29.52;;;0.20;99.90;;;;;;4992150;28;20723;-83
2022/01/11 10:00:09;;;;;;;36.03;32.75;;;0.40;99.90;;;;;;5008011;28;20135;-83
2022/01/11 10:02:34;;;;;;;36.53;33.95;;;0.40;99.90;;;;;;4990794;28;20465;-82
2022/01/11 10:05:05;;;;;;;35.92;33.22;;;0.50;99.90;;;;;;4993055;28;20136;-83
2022/01/11 10:07:40;;;;;;;35.55;32.75;;;0.60;99.90;;;;;;5006620;28;20453;-83
2022/01/11 10:10:15;;;;;;;31.88;29.63;;;0.60;99.90;;;;;;5007880;28;20042;-82
2022/01/11 10:12:50;;;;;;;65.35;59.88;;;0.80;99.90;;;;;;5002219;28;20560;-82
2022/01/11 10:15:33;;;;;;;67.80;63.08;;;0.90;99.90;;;;;;4991534;28;20581;-83
2022/01/11 10:18:02;;;;;;;48.28;44.97;;;1.00;99.90;;;;;;4984674;28;20038;-83
2022/01/11 10:20:29;;;;;;;57.45;53.17;;;1.00;99.90;;;;;;5002244;28;20104;-83
2022/01/11 10:22:59;;;;;;;56.92;52.38;;;0.90;99.90;;;;;;4985873;28;20117;-84
2022/01/11 10:25:26;;;;;;;38.42;35.50;;;0.90;99.90;;;;;;5007141;28;20046;-83
2022/01/11 10:27:58;;;;;;;44.15;39.80;;;0.80;99.90;;;;;;5006834;28;20116;-83
2022/01/11 10:30:25;;;;;;;41.15;37.55;;;0.80;99.90;;;;;;4991726;28;20053;-84
2022/01/11 10:32:52;;;;;;;38.50;35.45;;;0.80;99.90;;;;;;4990761;28;20034;-83
2022/01/11 10:35:23;;;;;;;35.83;32.80;;;0.80;99.90;;;;;;4982755;28;20054;-83
2022/01/11 10:37:51;;;;;;;37.63;34.63;;;0.80;99.90;;;;;;5005342;28;20258;-83
2022/01/11 10:40:18;;;;;;;33.20;30.45;;;0.90;99.90;;;;;;4999099;28;20108;-83
2022/01/11 10:42:49;;;;;;;35.20;31.63;;;0.90;99.90;;;;;;4991188;28;20057;-83
2022/01/11 10:45:19;;;;;;;38.58;35.15;;;1.00;99.90;;;;;;4988636;28;20038;-84
2022/01/11 10:47:51;;;;;;;37.60;34.03;;;1.10;99.90;;;;;;4988807;28;20128;-83
2022/01/11 10:50:28;;;;;;;34.22;30.83;;;1.20;99.90;;;;;;4989910;28;20059;-83
2022/01/11 10:52:55;;;;;;;36.05;32.95;;;1.20;99.90;;;;;;5007519;28;20407;-83
2022/01/11 10:55:22;;;;;;;40.63;36.88;;;1.30;99.90;;;;;;5003778;28;20149;-83
2022/01/11 10:58:00;;;;;;;34.10;31.30;;;1.40;99.90;;;;;;4987074;28;20590;-83
2022/01/11 11:00:40;;;;;;;29.73;27.33;;;1.40;99.90;;;;;;4981639;28;20049;-83
2022/01/11 11:03:15;;;;;;;28.85;27.00;;;1.50;99.90;;;;;;4995571;28;20398;-83
2022/01/11 11:05:48;;;;;;;34.13;31.08;;;1.60;99.90;;;;;;5004676;28;20053;-83
2022/01/11 11:08:21;;;;;;;;;;;1.80;99.90;;;;;;4991248;28;20045;-83
2022/01/11 11:10:48;;;;;;;49.53;46.15;;;1.90;99.90;;;;;;4994483;28;19968;-83
2022/01/11 11:13:21;;;;;;;33.85;31.30;;;2.00;99.90;;;;;;4994931;28;20506;-83
2022/01/11 11:15:49;;;;;;;29.92;28.00;;;2.00;99.90;;;;;;4992919;28;20051;-83
2022/01/11 11:18:47;;;;;;;39.22;35.88;;;2.10;99.90;;;;;;4996434;28;20441;-83
2022/01/11 11:21:18;;;;;;;35.80;32.95;;;2.20;99.90;;;;;;5012979;28;20030;-83
2022/01/11 11:23:45;;;;;;;36.78;33.72;;;2.20;99.90;;;;;;5005145;28;20520;-82
2022/01/11 11:26:13;;;;;;;31.73;29.05;;;2.20;99.90;;;;;;5003730;28;20037;-82
2022/01/11 11:28:39;;;;;;;26.83;24.50;;;2.30;99.90;;;;;;5009588;28;20049;-83
2022/01/11 11:31:05;;;;;;;38.80;35.15;;;2.40;99.90;;;;;;5009819;28;20450;-82
2022/01/11 11:33:33;;;;;;;26.67;24.98;;;2.40;99.90;;;;;;5018888;28;20521;-82
2022/01/11 11:35:59;;;;;;;27.55;25.58;;;2.50;99.90;;;;;;5010694;28;20069;-83
2022/01/11 11:38:31;;;;;;;36.65;33.90;;;2.60;99.90;;;;;;4993459;28;20073;-82
2022/01/11 11:40:59;;;;;;;39.00;34.93;;;2.70;99.90;;;;;;4990904;28;20077;-82
2022/01/11 11:43:25;;;;;;;27.75;25.73;;;2.70;99.90;;;;;;4994740;28;21037;-82
2022/01/11 11:45:51;;;;;;;44.70;41.30;;;2.70;99.90;;;;;;4990028;28;20383;-82
2022/01/11 11:48:19;;;;;;;33.20;31.15;;;2.80;99.90;;;;;;5010644;28;20052;-82
2022/01/11 11:51:00;;;;;;;23.70;22.23;;;2.80;99.90;;;;;;4993640;28;20449;-82
2022/01/11 11:53:38;;;;;;;32.13;28.75;;;2.80;99.90;;;;;;4986837;28;20048;-82
2022/01/11 11:56:33;;;;;;;45.83;35.80;;;2.90;99.90;;;;;;4994094;28;20065;-82
2022/01/11 11:59:05;;;;;;;30.00;27.48;;;2.90;99.90;;;;;;4991859;28;20045;-82
2022/01/11 12:01:44;;;;;;;34.47;31.55;;;2.90;99.90;;;;;;4996021;28;20515;-82
2022/01/11 12:04:31;;;;;;;36.40;33.85;;;2.90;99.90;;;;;;4990550;28;20045;-82
2022/01/11 12:07:18;;;;;;;36.30;33.72;;;2.90;99.90;;;;;;5006613;28;20424;-82
2022/01/11 12:09:45;;;;;;;30.35;27.38;;;2.90;99.90;;;;;;4990015;28;20100;-82
2022/01/11 12:12:16;;;;;;;30.75;28.75;;;2.90;99.90;;;;;;4989206;28;20069;-82
2022/01/11 12:14:42;;;;;;;32.33;30.00;;;2.90;99.90;;;;;;5001963;28;20046;-82
2022/01/11 12:17:16;;;;;;;39.08;35.95;;;2.80;99.90;;;;;;4986385;28;20034;-82
2022/01/11 12:19:46;;;;;;;24.95;23.30;;;2.80;99.90;;;;;;4990003;28;20057;-82
2022/01/11 12:22:12;;;;;;;32.83;30.27;;;2.80;99.90;;;;;;4985345;28;20045;-82
2022/01/11 12:24:45;;;;;;;30.77;28.70;;;2.80;99.90;;;;;;4989460;28;20050;-82
2022/01/11 12:27:14;;;;;;;46.00;42.67;;;2.90;99.90;;;;;;4980043;28;20038;-82
2022/01/11 12:29:59;;;;;;;35.70;32.70;;;2.90;99.90;;;;;;5005927;28;20581;-82
2022/01/11 12:32:26;;;;;;;31.83;29.50;;;2.90;99.90;;;;;;4998175;28;20121;-83
2022/01/11 12:34:54;;;;;;;39.05;35.90;;;2.90;99.90;;;;;;4989087;28;20120;-82